Time;durP1;ratioP1;P1;durP2;ratioP2;P2;SDS_P1;SDS_P2;PMS_P1;PMS_P2;Temp;Humidity;BMP_temperature;BMP_pressure;BME280_temperature;BME280_humidity;BME280_pressure;Samples;Min_cycle;Max_cycle;Signal;HPM_P1;HPM_P2
2022/11/24 00:00:14;;;;;;;0.00;0.00;;;;;;;8.54;90.20;98040.66;4955297;28;20317;-61
2022/11/24 00:02:42;;;;;;;0.00;0.00;;;;;;;8.59;90.10;98042.81;4957641;28;20234;-62
2022/11/24 00:05:11;;;;;;;0.00;0.00;;;;;;;8.56;89.65;98036.94;4954899;28;20233;-61
2022/11/24 00:07:38;;;;;;;0.00;0.00;;;;;;;8.58;90.35;98036.78;4957504;28;20754;-59
2022/11/24 00:10:05;;;;;;;0.00;0.00;;;;;;;8.54;90.69;98046.69;4952929;28;20234;-61
2022/11/24 00:12:31;;;;;;;0.00;0.00;;;;;;;8.56;91.76;98049.13;4959092;28;20276;-62
2022/11/24 00:14:58;;;;;;;0.00;0.00;;;;;;;8.68;88.65;98044.50;4958077;28;20225;-61
2022/11/24 00:17:24;;;;;;;0.00;0.00;;;;;;;8.72;88.53;98064.06;4945447;28;20253;-61
2022/11/24 00:19:58;;;;;;;0.00;0.00;;;;;;;8.77;87.90;98050.56;4945443;28;20273;-61
2022/11/24 00:22:24;;;;;;;0.00;0.00;;;;;;;8.75;87.20;98057.72;4954419;28;20305;-61
2022/11/24 00:24:51;;;;;;;0.00;0.00;;;;;;;8.74;87.95;98063.88;4957758;28;20239;-61
2022/11/24 00:27:17;;;;;;;0.00;0.00;;;;;;;8.70;88.74;98060.78;4955932;28;20237;-62
2022/11/24 00:29:44;;;;;;;0.00;0.00;;;;;;;8.64;89.89;98070.00;4957750;28;20262;-61
2022/11/24 00:32:10;;;;;;;0.00;0.00;;;;;;;8.60;88.60;98071.28;4952037;28;20230;-62
2022/11/24 00:34:37;;;;;;;0.00;0.00;;;;;;;8.55;90.38;98068.31;4955125;28;20222;-62
2022/11/24 00:37:05;;;;;;;0.00;0.00;;;;;;;8.57;90.37;98062.00;4950676;28;20627;-62
2022/11/24 00:39:32;;;;;;;0.00;0.00;;;;;;;8.52;90.60;98059.03;4955485;28;20230;-62
2022/11/24 00:41:58;;;;;;;0.00;0.00;;;;;;;8.46;92.11;98064.00;4954788;28;20238;-62
2022/11/24 00:44:28;;;;;;;0.00;0.00;;;;;;;8.44;90.85;98074.53;4953993;28;20260;-62
2022/11/24 00:46:55;;;;;;;0.00;0.00;;;;;;;8.49;90.89;98067.13;4954597;28;20234;-62
2022/11/24 00:49:21;;;;;;;0.00;0.00;;;;;;;8.49;90.61;98063.72;4950763;28;20252;-63
2022/11/24 00:51:48;;;;;;;0.03;0.03;;;;;;;8.49;90.60;98068.91;4957202;28;20284;-62
2022/11/24 00:54:16;;;;;;;0.00;0.00;;;;;;;8.50;90.65;98073.97;4953894;28;20231;-62
2022/11/24 00:56:42;;;;;;;0.00;0.00;;;;;;;8.51;91.26;98083.41;4958527;28;20242;-62
2022/11/24 00:59:09;;;;;;;0.00;0.00;;;;;;;8.49;89.76;98080.16;4950013;28;20274;-62
2022/11/24 01:01:38;;;;;;;0.00;0.00;;;;;;;8.50;90.60;98079.19;4935676;28;20643;-62
2022/11/24 01:04:05;;;;;;;0.00;0.00;;;;;;;8.50;90.56;98086.16;4935094;28;21749;-62
2022/11/24 01:06:34;;;;;;;0.00;0.00;;;;;;;8.57;88.51;98089.78;4951893;28;20234;-62
2022/11/24 01:09:01;;;;;;;0.00;0.00;;;;;;;8.59;88.57;98081.84;4956422;28;20237;-62
2022/11/24 01:12:00;;;;;;;0.00;0.00;;;;;;;8.57;89.25;98095.81;4955170;28;20276;-62
2022/11/24 01:14:20;;;;;;;0.00;0.00;;;;;;;8.54;89.71;98100.50;4952317;28;20221;-62
2022/11/24 01:16:47;;;;;;;0.00;0.00;;;;;;;8.55;88.28;98097.75;4953208;28;20242;-63
2022/11/24 01:19:13;;;;;;;0.03;0.03;;;;;;;8.51;88.77;98104.22;4945150;28;20238;-63
2022/11/24 01:21:40;;;;;;;0.00;0.00;;;;;;;8.44;87.92;98115.34;4946450;28;21809;-63
2022/11/24 01:24:07;;;;;;;0.00;0.00;;;;;;;8.36;89.17;98100.50;4950728;28;20231;-63
2022/11/24 01:26:35;;;;;;;0.00;0.00;;;;;;;8.25;90.35;98110.16;4958781;28;20300;-63
2022/11/24 01:29:01;;;;;;;0.00;0.00;;;;;;;8.10;90.00;98107.25;4956992;28;20573;-62
2022/11/24 01:31:29;;;;;;;0.00;0.00;;;;;;;8.04;91.24;98100.03;4953417;28;20777;-62
2022/11/24 01:33:55;;;;;;;0.00;0.00;;;;;;;7.95;91.12;98116.53;4954772;28;20283;-62
2022/11/24 01:36:22;;;;;;;0.00;0.00;;;;;;;7.86;92.32;98092.25;4948505;28;20294;-62
2022/11/24 01:38:49;;;;;;;0.00;0.00;;;;;;;7.95;91.50;98100.94;4955730;28;20234;-62
2022/11/24 01:41:19;;;;;;;0.00;0.00;;;;;;;7.93;90.98;98105.44;4954131;28;20233;-62
2022/11/24 01:43:48;;;;;;;0.00;0.00;;;;;;;7.98;91.71;98114.44;4955443;28;20306;-62
2022/11/24 01:46:20;;;;;;;0.00;0.00;;;;;;;8.06;90.79;98126.72;4953291;28;20307;-62
2022/11/24 01:48:51;;;;;;;0.00;0.00;;;;;;;8.14;89.36;98112.97;4955011;28;20228;-61
2022/11/24 01:51:23;;;;;;;0.00;0.00;;;;;;;8.30;87.73;98125.31;4949494;28;20226;-62
2022/11/24 01:53:55;;;;;;;0.00;0.00;;;;;;;8.41;87.78;98126.88;4943401;28;20577;-62
2022/11/24 01:56:22;;;;;;;0.00;0.00;;;;;;;8.45;88.69;98128.19;4951901;28;22627;-62
2022/11/24 01:58:58;;;;;;;0.00;0.00;;;;;;;8.46;86.80;98127.22;4956390;28;20250;-62
2022/11/24 02:01:25;;;;;;;0.00;0.00;;;;;;;8.43;87.69;98122.31;4957782;28;20296;-62
2022/11/24 02:03:52;;;;;;;0.00;0.00;;;;;;;8.44;87.07;98117.97;4964285;28;20701;-62
2022/11/24 02:06:23;;;;;;;0.00;0.00;;;;;;;8.33;89.17;98125.03;4961265;28;20229;-62
2022/11/24 02:08:56;;;;;;;0.00;0.00;;;;;;;8.34;88.34;98139.66;4961569;28;20703;-62
2022/11/24 02:11:25;;;;;;;0.00;0.00;;;;;;;8.42;86.90;98124.13;4961957;28;20237;-62
2022/11/24 02:13:54;;;;;;;0.00;0.00;;;;;;;8.37;87.90;98117.72;4967547;28;20638;-62
2022/11/24 02:16:20;;;;;;;0.00;0.00;;;;;;;8.31;88.44;98113.94;4960750;28;20708;-62
2022/11/24 02:18:47;;;;;;;0.00;0.00;;;;;;;8.19;90.16;98117.72;4947919;28;20245;-62
2022/11/24 02:21:16;;;;;;;0.00;0.00;;;;;;;8.11;90.97;98121.88;4951988;28;20267;-62
2022/11/24 02:23:48;;;;;;;0.00;0.00;;;;;;;8.02;90.61;98127.13;4961417;28;20639;-62
2022/11/24 02:26:21;;;;;;;0.07;0.07;;;;;;;7.91;91.54;98130.78;4962478;28;20241;-62
2022/11/24 02:28:50;;;;;;;0.00;0.00;;;;;;;7.93;91.33;98115.84;4949011;28;20305;-62
2022/11/24 02:31:16;;;;;;;0.00;0.00;;;;;;;7.90;91.14;98116.97;4961670;28;20548;-62
2022/11/24 02:33:43;;;;;;;0.00;0.00;;;;;;;7.96;90.59;98107.75;4968030;28;20280;-62
2022/11/24 02:36:09;;;;;;;0.00;0.00;;;;;;;7.95;90.24;98116.53;4965181;28;20254;-62
2022/11/24 02:38:39;;;;;;;0.00;0.00;;;;;;;7.91;90.28;98112.56;4961374;28;20289;-62
2022/11/24 02:41:08;;;;;;;0.00;0.00;;;;;;;7.82;91.98;98115.09;4963906;28;20230;-62
2022/11/24 02:43:39;;;;;;;0.03;0.03;;;;;;;7.81;91.63;98105.66;4966864;28;20230;-62
2022/11/24 02:46:08;;;;;;;0.00;0.00;;;;;;;7.83;91.37;98114.13;4963718;28;20238;-62
2022/11/24 02:48:34;;;;;;;0.00;0.00;;;;;;;7.81;91.22;98123.84;4961861;28;20267;-62
2022/11/24 02:51:01;;;;;;;0.00;0.00;;;;;;;7.90;89.09;98116.97;4965291;28;20236;-62
2022/11/24 02:53:27;;;;;;;0.00;0.00;;;;;;;7.90;90.38;98132.56;4961938;28;20236;-62
2022/11/24 02:55:54;;;;;;;0.00;0.00;;;;;;;7.90;89.81;98131.72;4949289;28;20234;-62
2022/11/24 02:58:21;;;;;;;0.00;0.00;;;;;;;7.93;89.33;98127.06;4947581;28;20266;-62
2022/11/24 03:00:47;;;;;;;0.10;0.10;;;;;;;8.01;87.74;98128.94;4968445;28;20238;-62
2022/11/24 03:03:15;;;;;;;0.00;0.00;;;;;;;7.93;89.03;98127.06;4965097;28;20218;-62
2022/11/24 03:05:42;;;;;;;0.00;0.00;;;;;;;7.90;89.47;98134.34;4968405;28;20587;-62
2022/11/24 03:08:08;;;;;;;0.00;0.00;;;;;;;7.79;90.10;98127.56;4965496;28;20783;-62
2022/11/24 03:10:35;;;;;;;0.00;0.00;;;;;;;7.80;88.42;98132.59;4968231;28;20698;-62
2022/11/24 03:13:02;;;;;;;0.10;0.10;;;;;;;7.86;88.11;98136.41;4958846;28;20282;-62
2022/11/24 03:15:28;;;;;;;0.00;0.00;;;;;;;7.94;86.88;98136.50;4964234;28;20241;-62
2022/11/24 03:17:56;;;;;;;0.10;0.10;;;;;;;8.00;87.83;98126.47;4968231;28;20230;-62
2022/11/24 03:20:24;;;;;;;0.00;0.00;;;;;;;8.02;87.76;98108.94;4948876;28;20332;-62
2022/11/24 03:22:51;;;;;;;0.00;0.00;;;;;;;8.04;86.35;98126.03;4967893;28;20237;-62
2022/11/24 03:25:18;;;;;;;0.00;0.00;;;;;;;8.16;86.38;98136.22;4965449;28;20723;-62
2022/11/24 03:27:45;;;;;;;0.00;0.00;;;;;;;8.16;84.86;98123.22;4967559;28;20233;-65
2022/11/24 03:30:13;;;;;;;0.00;0.00;;;;;;;8.25;83.52;98132.75;4954828;28;20231;-62
2022/11/24 03:32:40;;;;;;;0.00;0.00;;;;;;;8.24;83.78;98133.72;4948628;28;20620;-62
2022/11/24 03:35:08;;;;;;;0.00;0.00;;;;;;;8.33;82.66;98148.44;4954513;28;20229;-62
2022/11/24 03:37:36;;;;;;;0.00;0.00;;;;;;;8.35;82.54;98136.09;4967384;28;20287;-62
2022/11/24 03:40:03;;;;;;;0.00;0.00;;;;;;;8.37;81.42;98139.38;4956362;28;20588;-62
2022/11/24 03:42:30;;;;;;;0.00;0.00;;;;;;;8.23;83.96;98132.06;4960000;28;20230;-61
2022/11/24 03:44:56;;;;;;;0.00;0.00;;;;;;;8.21;82.91;98129.59;4967668;28;20237;-62
2022/11/24 03:47:23;;;;;;;0.00;0.00;;;;;;;8.21;82.54;98147.81;4964764;28;20226;-62
2022/11/24 03:49:50;;;;;;;0.07;0.07;;;;;;;8.28;83.72;98151.44;4966323;28;20464;-62
2022/11/24 03:52:16;;;;;;;0.00;0.00;;;;;;;8.34;83.39;98144.84;4964593;28;20230;-62
2022/11/24 03:54:46;;;;;;;0.00;0.00;;;;;;;8.44;82.53;98152.56;4966240;28;20571;-62
2022/11/24 03:57:13;;;;;;;0.00;0.00;;;;;;;8.47;82.14;98144.47;4964580;28;20262;-62
2022/11/24 03:59:39;;;;;;;0.00;0.00;;;;;;;8.47;82.83;98144.47;4967513;28;20222;-62
2022/11/24 04:02:06;;;;;;;0.00;0.00;;;;;;;8.55;81.76;98147.19;4963872;28;20250;-62
2022/11/24 04:04:33;;;;;;;0.00;0.00;;;;;;;8.68;79.56;98145.97;4967232;28;20234;-62
2022/11/24 04:06:59;;;;;;;0.00;0.00;;;;;;;8.66;80.55;98150.53;4967449;28;20238;-62
2022/11/24 04:09:26;;;;;;;0.00;0.00;;;;;;;8.77;78.91;98141.66;4964722;28;20238;-62
2022/11/24 04:14:38;;;;;;;0.00;0.00;;;;;;;8.66;80.98;98153.13;4953832;28;20257;-62
2022/11/24 04:17:04;;;;;;;0.00;0.00;;;;;;;8.69;81.42;98169.22;4963767;28;20241;-62
2022/11/24 04:19:31;;;;;;;0.00;0.00;;;;;;;8.67;80.29;98165.97;4963343;28;20642;-62
2022/11/24 04:21:57;;;;;;;0.00;0.00;;;;;;;8.67;80.70;98158.16;4954888;28;20688;-62
2022/11/24 04:24:24;;;;;;;0.00;0.00;;;;;;;8.68;81.04;98159.00;4959611;28;20234;-62
2022/11/24 04:26:54;;;;;;;0.00;0.00;;;;;;;8.68;80.84;98161.59;4966828;28;20237;-62
2022/11/24 04:29:20;;;;;;;0.00;0.00;;;;;;;8.67;80.25;98160.75;4952577;28;20331;-62
2022/11/24 04:31:47;;;;;;;0.00;0.00;;;;;;;8.55;81.00;98161.97;5149861;23;20669;-56
2022/11/24 04:34:14;;;;;;;0.00;0.00;;;;;;;8.43;82.94;98163.94;4916706;29;20223;-55
2022/11/24 04:36:40;;;;;;;0.00;0.00;;;;;;;8.40;82.73;98161.63;4922055;28;20228;-55
2022/11/24 04:39:07;;;;;;;0.00;0.00;;;;;;;8.41;82.37;98166.72;4918134;28;20223;-56
2022/11/24 04:41:33;;;;;;;0.00;0.00;;;;;;;8.39;83.34;98173.00;4925117;28;20250;-55
2022/11/24 04:47:00;;;;;;;0.10;0.10;;;;;;;8.38;84.40;98172.22;4941674;28;20227;-62
2022/11/24 04:49:27;;;;;;;0.00;0.00;;;;;;;8.40;84.66;98195.44;4943737;28;20803;-62
2022/11/24 04:51:54;;;;;;;0.00;0.00;;;;;;;8.34;84.64;98177.84;4938593;28;20232;-62
2022/11/24 04:54:20;;;;;;;0.00;0.00;;;;;;;8.29;85.96;98173.09;4918673;28;20221;-62
2022/11/24 04:56:50;;;;;;;0.00;0.00;;;;;;;8.26;86.14;98186.38;4929585;29;20259;-62
2022/11/24 04:59:19;;;;;;;0.00;0.00;;;;;;;8.27;85.29;98191.41;4915984;28;20311;-62
2022/11/24 05:01:46;;;;;;;0.00;0.00;;;;;;;8.33;84.71;98184.84;4936352;28;20243;-63
2022/11/24 05:04:15;;;;;;;0.00;0.00;;;;;;;8.39;84.74;98178.22;4930506;28;20234;-62
2022/11/24 05:06:41;;;;;;;0.00;0.00;;;;;;;8.34;85.79;98183.03;4933794;28;20238;-63
2022/11/24 05:09:08;;;;;;;0.00;0.00;;;;;;;8.40;84.89;98195.44;4930382;28;20236;-62
2022/11/24 05:11:35;;;;;;;0.00;0.00;;;;;;;8.40;84.96;98198.88;4932766;28;20235;-62
2022/11/24 05:14:02;;;;;;;0.00;0.00;;;;;;;8.47;84.05;98200.91;4936939;28;20238;-62
2022/11/24 05:16:30;;;;;;;0.00;0.00;;;;;;;8.48;83.37;98192.13;4927010;28;20230;-62
2022/11/24 05:18:56;;;;;;;0.00;0.00;;;;;;;8.51;84.75;98203.06;4914496;29;20220;-62
2022/11/24 05:21:23;;;;;;;0.00;0.00;;;;;;;8.56;83.23;98202.63;4916358;28;20314;-63
2022/11/24 05:23:49;;;;;;;0.00;0.00;;;;;;;8.50;83.44;98206.63;4931328;28;20330;-62
2022/11/24 05:26:16;;;;;;;0.03;0.03;;;;;;;8.47;84.56;98185.28;4929909;28;20279;-63
2022/11/24 05:28:42;;;;;;;0.00;0.00;;;;;;;8.44;84.86;98193.38;4931303;28;20252;-62
2022/11/24 05:31:09;;;;;;;0.00;0.00;;;;;;;8.39;84.97;98188.63;4911430;28;20236;-63
2022/11/24 05:33:37;;;;;;;0.00;0.00;;;;;;;8.41;84.12;98184.09;4914187;29;20243;-62
2022/11/24 05:36:06;;;;;;;0.00;0.00;;;;;;;8.42;83.79;98185.72;4911802;28;20719;-62
2022/11/24 05:38:33;;;;;;;0.00;0.00;;;;;;;8.48;83.38;98172.13;4932150;28;20243;-62
2022/11/24 05:41:04;;;;;;;0.00;0.00;;;;;;;8.55;83.15;98180.16;4933725;28;20664;-62
2022/11/24 05:43:31;;;;;;;0.00;0.00;;;;;;;8.54;82.72;98192.38;4926928;28;20250;-62
2022/11/24 05:45:59;;;;;;;0.00;0.00;;;;;;;8.56;83.18;98193.03;4918353;28;20235;-62
2022/11/24 05:48:26;;;;;;;0.00;0.00;;;;;;;8.59;84.83;98204.13;4916008;28;20726;-62
2022/11/24 05:50:57;;;;;;;0.00;0.00;;;;;;;8.57;87.37;98199.88;4911178;28;20763;-62
2022/11/24 05:53:25;;;;;;;0.00;0.00;;;;;;;8.47;90.11;98212.09;4912670;29;20241;-62
2022/11/24 05:55:52;;;;;;;0.00;0.00;;;;;;;8.39;92.23;98225.84;4917014;29;20239;-62
2022/11/24 05:58:18;;;;;;;0.00;0.00;;;;;;;8.23;95.06;98236.88;4911680;29;20236;-62
2022/11/24 06:00:45;;;;;;;0.00;0.00;;;;;;;8.14;96.32;98227.34;4920381;28;20242;-62
2022/11/24 06:03:12;;;;;;;0.10;0.10;;;;;;;8.03;98.45;98251.78;4931427;28;20240;-62
2022/11/24 06:05:39;;;;;;;0.00;0.00;;;;;;;7.95;99.53;98257.66;4936369;28;20232;-61
2022/11/24 06:08:07;;;;;;;0.10;0.10;;;;;;;7.93;99.92;98251.00;4926822;28;20233;-62
2022/11/24 06:10:33;;;;;;;0.00;0.00;;;;;;;7.89;100.00;98266.06;4932514;28;20731;-62
2022/11/24 06:13:04;;;;;;;0.00;0.00;;;;;;;7.86;100.00;98270.72;4934386;28;20222;-62
2022/11/24 06:15:31;;;;;;;0.00;0.00;;;;;;;7.85;100.00;98293.28;4931662;28;20234;-62
2022/11/24 06:17:58;;;;;;;0.00;0.00;;;;;;;7.81;100.00;98303.13;4932259;28;20243;-62
2022/11/24 06:20:25;;;;;;;0.00;0.00;;;;;;;7.79;100.00;98301.66;4927418;28;20234;-62
2022/11/24 06:22:52;;;;;;;0.00;0.00;;;;;;;7.72;100.00;98296.19;4930159;28;20318;-62
2022/11/24 06:25:20;;;;;;;0.00;0.00;;;;;;;7.57;100.00;98329.59;4928214;28;20230;-62
2022/11/24 06:27:46;;;;;;;0.00;0.00;;;;;;;7.58;100.00;98328.63;4931990;28;20243;-62
2022/11/24 06:30:14;;;;;;;0.00;0.00;;;;;;;7.59;100.00;98345.84;4930088;28;20246;-62
2022/11/24 06:32:43;;;;;;;0.10;0.10;;;;;;;7.59;100.00;98342.41;4933750;28;20231;-62
2022/11/24 06:35:11;;;;;;;0.00;0.00;;;;;;;7.40;100.00;98336.31;4931336;28;20224;-62
2022/11/24 06:37:38;;;;;;;0.00;0.00;;;;;;;7.38;100.00;98338.22;4933211;28;20243;-62
2022/11/24 06:40:06;;;;;;;0.00;0.00;;;;;;;7.27;100.00;98322.78;4930046;28;20765;-62
2022/11/24 06:42:34;;;;;;;0.07;0.07;;;;;;;7.20;100.00;98346.69;4941063;28;20238;-63
2022/11/24 06:45:01;;;;;;;0.00;0.00;;;;;;;7.15;100.00;98333.28;4929256;28;20276;-62
2022/11/24 06:47:28;;;;;;;0.00;0.00;;;;;;;7.14;100.00;98355.00;4934847;28;20266;-62
2022/11/24 06:49:54;;;;;;;0.00;0.00;;;;;;;7.08;100.00;98369.34;4933244;28;20257;-62
2022/11/24 06:52:27;;;;;;;0.00;0.00;;;;;;;7.07;100.00;98374.69;4932761;28;20238;-62
2022/11/24 06:54:53;;;;;;;0.03;0.03;;;;;;;7.07;100.00;98377.28;4949997;28;20247;-62
2022/11/24 06:57:20;;;;;;;0.00;0.00;;;;;;;7.04;100.00;98393.13;4934170;28;20227;-62
2022/11/24 06:59:49;;;;;;;0.00;0.00;;;;;;;7.06;100.00;98414.56;4936173;28;20235;-62
2022/11/24 07:02:15;;;;;;;0.10;0.10;;;;;;;7.01;100.00;98407.16;4931770;28;20768;-61
2022/11/24 07:04:42;;;;;;;0.00;0.00;;;;;;;6.97;100.00;98416.16;4939127;28;20222;-61
2022/11/24 07:07:08;;;;;;;0.00;0.00;;;;;;;6.96;100.00;98408.53;4927569;28;20228;-62
2022/11/24 07:09:35;;;;;;;0.00;0.00;;;;;;;6.95;100.00;98412.88;4916728;29;20235;-62
2022/11/24 07:12:02;;;;;;;0.00;0.00;;;;;;;6.83;100.00;98425.16;4915762;29;20238;-62
2022/11/24 07:14:31;;;;;;;0.00;0.00;;;;;;;6.89;100.00;98426.41;4913268;28;20235;-62
2022/11/24 07:17:01;;;;;;;0.00;0.00;;;;;;;6.81;100.00;98416.69;4925733;28;20222;-61
2022/11/24 07:19:27;;;;;;;0.00;0.00;;;;;;;6.76;100.00;98416.25;4933708;28;20230;-61
2022/11/24 07:21:54;;;;;;;0.00;0.00;;;;;;;6.66;100.00;98424.00;4934777;28;20231;-60
2022/11/24 07:24:21;;;;;;;0.00;0.00;;;;;;;6.64;100.00;98418.94;4930931;28;20286;-61
2022/11/24 07:26:47;;;;;;;0.00;0.00;;;;;;;6.68;100.00;98424.69;4933715;28;20603;-61
2022/11/24 07:29:14;;;;;;;0.00;0.00;;;;;;;6.61;100.00;98424.38;4931800;28;20254;-61
2022/11/24 07:31:42;;;;;;;0.00;0.00;;;;;;;6.58;100.00;98416.88;4939086;28;20873;-62
2022/11/24 07:34:13;;;;;;;0.00;0.00;;;;;;;6.62;100.00;98410.47;4932730;28;20226;-61
2022/11/24 07:36:40;;;;;;;0.00;0.00;;;;;;;6.61;100.00;98423.56;4936263;28;20239;-61
2022/11/24 07:39:06;;;;;;;0.00;0.00;;;;;;;6.62;100.00;98417.44;4933091;28;20295;-61
2022/11/24 07:41:33;;;;;;;0.00;0.00;;;;;;;6.64;100.00;98416.34;4936305;28;20290;-61
2022/11/24 07:44:01;;;;;;;0.00;0.00;;;;;;;6.68;100.00;98405.72;4933117;28;20647;-62
2022/11/24 07:46:28;;;;;;;0.10;0.10;;;;;;;6.69;100.00;98412.53;4932314;28;20239;-61
2022/11/24 07:48:54;;;;;;;0.00;0.00;;;;;;;6.69;100.00;98409.94;4925876;28;20243;-61
2022/11/24 07:51:22;;;;;;;0.00;0.00;;;;;;;6.72;100.00;98405.34;4924604;28;20242;-62
2022/11/24 07:53:49;;;;;;;0.00;0.00;;;;;;;6.75;100.00;98405.06;4935449;28;20233;-62
2022/11/24 07:56:16;;;;;;;0.00;0.00;;;;;;;6.82;100.00;98402.75;4932717;28;20230;-62
2022/11/24 07:58:42;;;;;;;0.00;0.00;;;;;;;6.83;100.00;98421.75;4934864;28;20247;-62
2022/11/24 08:01:11;;;;;;;0.00;0.00;;;;;;;6.88;100.00;98417.78;4922547;28;20239;-62
2022/11/24 08:03:37;;;;;;;0.00;0.00;;;;;;;6.93;100.00;98419.97;4917510;29;21176;-64
2022/11/24 08:06:04;;;;;;;0.00;0.00;;;;;;;6.97;100.00;98412.75;4920116;28;20235;-62
2022/11/24 08:08:33;;;;;;;0.00;0.00;;;;;;;6.92;100.00;98413.16;4932534;28;20230;-62
2022/11/24 08:11:04;;;;;;;0.00;0.00;;;;;;;6.95;100.00;98397.31;4934313;28;20326;-61
2022/11/24 08:13:31;;;;;;;0.10;0.10;;;;;;;6.92;100.00;98403.59;4920669;28;20767;-61
2022/11/24 08:15:57;;;;;;;0.00;0.00;;;;;;;6.98;100.00;98401.44;4916113;28;20713;-62
2022/11/24 08:18:24;;;;;;;0.00;0.00;;;;;;;7.05;100.00;98400.75;4922828;28;20230;-62
2022/11/24 08:20:50;;;;;;;0.00;0.00;;;;;;;7.11;100.00;98394.22;4932813;28;20238;-62
2022/11/24 08:23:17;;;;;;;0.00;0.00;;;;;;;7.13;100.00;98405.28;4931271;28;20230;-61
2022/11/24 08:25:45;;;;;;;0.00;0.00;;;;;;;7.13;100.00;98407.06;4931243;29;20651;-61
2022/11/24 08:28:11;;;;;;;0.00;0.00;;;;;;;7.14;100.00;98411.28;4932094;28;20219;-61
2022/11/24 08:30:38;;;;;;;0.00;0.00;;;;;;;7.29;100.00;98412.53;4935516;28;20328;-62
2022/11/24 08:33:04;;;;;;;0.00;0.00;;;;;;;7.43;100.00;98424.28;4934238;28;20231;-61
2022/11/24 08:35:31;;;;;;;0.10;0.10;;;;;;;7.45;100.00;98412.00;4921816;28;20748;-61
2022/11/24 08:37:58;;;;;;;0.00;0.00;;;;;;;7.57;100.00;98417.91;4912444;29;20228;-62
2022/11/24 08:40:25;;;;;;;0.00;0.00;;;;;;;7.60;100.00;98433.22;4914083;29;20236;-62
2022/11/24 08:42:57;;;;;;;0.00;0.00;;;;;;;7.52;100.00;98430.47;4911885;29;20236;-62
2022/11/24 08:45:24;;;;;;;0.00;0.00;;;;;;;7.44;100.00;98428.53;4909844;29;20247;-62
2022/11/24 08:47:52;;;;;;;0.00;0.00;;;;;;;7.48;100.00;98440.28;4930675;28;20232;-61
2022/11/24 08:50:19;;;;;;;0.00;0.00;;;;;;;7.44;100.00;98433.72;4932326;28;20362;-61
2022/11/24 08:52:46;;;;;;;0.00;0.00;;;;;;;7.51;100.00;98437.44;4931729;28;20620;-61
2022/11/24 08:55:12;;;;;;;0.00;0.00;;;;;;;7.42;100.00;98435.63;4927755;28;20315;-61
2022/11/24 08:57:39;;;;;;;0.00;0.00;;;;;;;7.43;100.00;98441.66;4929444;28;20227;-61
2022/11/24 09:00:08;;;;;;;0.00;0.00;;;;;;;7.37;100.00;98441.25;4916863;28;20243;-57
2022/11/24 09:02:35;;;;;;;0.00;0.00;;;;;;;7.39;100.00;98441.13;4911074;29;20243;-62
2022/11/24 09:05:01;;;;;;;0.00;0.00;;;;;;;7.34;100.00;98456.28;4929221;28;20238;-61
2022/11/24 09:07:31;;;;;;;0.00;0.00;;;;;;;7.41;100.00;98465.19;4936000;28;20234;-62
2022/11/24 09:09:57;;;;;;;0.00;0.00;;;;;;;7.47;100.00;98454.22;4933339;28;20239;-62
2022/11/24 09:12:24;;;;;;;0.00;0.00;;;;;;;7.48;100.00;98468.88;4922698;28;20314;-62
2022/11/24 09:14:53;;;;;;;0.00;0.00;;;;;;;7.53;100.00;98476.25;4913873;28;20240;-63
2022/11/24 09:17:21;;;;;;;0.00;0.00;;;;;;;7.56;100.00;98467.38;4916207;28;20687;-62
2022/11/24 09:19:48;;;;;;;0.00;0.00;;;;;;;7.57;100.00;98476.81;4932608;28;20795;-63
2022/11/24 09:22:15;;;;;;;0.00;0.00;;;;;;;7.63;100.00;98468.47;4934222;28;20231;-62
2022/11/24 09:24:41;;;;;;;0.00;0.00;;;;;;;7.68;100.00;98474.91;4924809;28;20235;-61
2022/11/24 09:27:08;;;;;;;0.00;0.00;;;;;;;7.75;100.00;98485.56;4918468;28;20228;-61
2022/11/24 09:29:34;;;;;;;0.10;0.10;;;;;;;7.81;100.00;98492.81;4915333;29;20243;-60
2022/11/24 09:32:01;;;;;;;0.00;0.00;;;;;;;7.93;100.00;98492.69;4914667;29;20287;-61
2022/11/24 09:34:29;;;;;;;0.00;0.00;;;;;;;7.94;100.00;98497.75;4927737;28;20573;-60
2022/11/24 09:36:57;;;;;;;0.00;0.00;;;;;;;7.98;100.00;98500.91;4930941;28;20668;-61
2022/11/24 09:39:24;;;;;;;0.00;0.00;;;;;;;8.03;100.00;98508.28;4929061;28;20295;-61
2022/11/24 09:42:03;;;;;;;0.00;0.00;;;;;;;7.98;100.00;98509.50;4931902;28;20239;-62
2022/11/24 09:44:48;;;;;;;0.00;0.00;;;;;;;8.02;100.00;98507.47;4932084;28;21101;-61
2022/11/24 09:47:25;;;;;;;0.00;0.00;;;;;;;8.03;100.00;98514.31;4929962;28;20219;-61
2022/11/24 09:49:59;;;;;;;0.10;0.10;;;;;;;8.08;100.00;98537.28;4927182;28;20720;-61
2022/11/24 09:52:41;;;;;;;0.00;0.00;;;;;;;8.09;100.00;98534.56;4931311;28;20257;-60
2022/11/24 09:55:23;;;;;;;0.00;0.00;;;;;;;8.17;100.00;98543.44;4932013;28;20223;-59
2022/11/24 09:57:56;;;;;;;0.00;0.00;;;;;;;8.27;100.00;98545.06;4931786;28;20245;-59
2022/11/24 10:00:23;;;;;;;0.00;0.00;;;;;;;8.27;100.00;98539.88;4919465;28;20236;-59
2022/11/24 10:02:52;;;;;;;0.00;0.00;;;;;;;8.40;100.00;98541.38;4926833;28;20234;-58
2022/11/24 10:05:22;;;;;;;0.00;0.00;;;;;;;8.34;100.00;98549.72;4930360;28;20715;-59
2022/11/24 10:08:00;;;;;;;0.00;0.00;;;;;;;8.57;100.00;98558.06;4921181;28;20231;-59
2022/11/24 10:10:34;;;;;;;0.00;0.00;;;;;;;8.60;100.00;98565.59;4928625;28;20235;-58
2022/11/24 10:13:15;;;;;;;0.00;0.00;;;;;;;8.65;100.00;98557.38;4911711;29;20233;-59
2022/11/24 10:15:47;;;;;;;0.00;0.00;;;;;;;8.60;100.00;98554.38;4912402;28;20719;-59
2022/11/24 10:18:27;;;;;;;0.00;0.00;;;;;;;8.71;100.00;98549.81;4908884;29;20232;-59
2022/11/24 10:21:06;;;;;;;0.00;0.00;;;;;;;8.72;100.00;98558.47;4914061;29;20294;-59
2022/11/24 10:23:46;;;;;;;0.00;0.00;;;;;;;8.86;99.25;98559.78;4926613;28;20592;-59
2022/11/24 10:26:20;;;;;;;0.00;0.00;;;;;;;8.89;100.00;98564.72;4927095;28;20632;-60
2022/11/24 10:28:54;;;;;;;0.00;0.00;;;;;;;8.94;100.00;98562.50;4930737;28;20236;-59
2022/11/24 10:31:28;;;;;;;0.00;0.00;;;;;;;9.21;98.25;98565.28;4912469;28;20703;-58
2022/11/24 10:33:57;;;;;;;0.00;0.00;;;;;;;9.16;95.84;98563.94;4916640;28;20231;-60
2022/11/24 10:36:31;;;;;;;0.00;0.00;;;;;;;9.40;94.47;98569.59;4914323;28;20252;-58
2022/11/24 10:39:06;;;;;;;0.00;0.00;;;;;;;9.36;97.63;98566.47;4933428;28;20311;-59
2022/11/24 10:41:42;;;;;;;0.00;0.00;;;;;;;9.41;94.56;98569.44;4931596;28;20336;-59
2022/11/24 10:44:13;;;;;;;0.00;0.00;;;;;;;9.30;96.01;98567.03;4930587;28;20280;-59
2022/11/24 10:46:44;;;;;;;0.00;0.00;;;;;;;9.27;93.42;98573.38;4918803;29;20260;-60
2022/11/24 10:49:19;;;;;;;0.00;0.00;;;;;;;9.45;94.55;98562.19;4932046;28;20225;-59
2022/11/24 10:52:04;;;;;;;0.00;0.00;;;;;;;9.44;95.85;98566.56;4935016;28;20251;-59
2022/11/24 10:54:32;;;;;;;0.00;0.00;;;;;;;9.28;91.76;98556.78;4921405;28;20240;-59
2022/11/24 10:57:00;;;;;;;0.00;0.00;;;;;;;9.38;93.27;98568.94;4935060;28;20242;-59
2022/11/24 10:59:34;;;;;;;0.00;0.00;;;;;;;9.53;92.13;98564.88;4930637;28;20728;-59
2022/11/24 11:02:00;;;;;;;0.00;0.00;;;;;;;9.71;92.51;98564.06;4925618;28;20735;-59
2022/11/24 11:04:31;;;;;;;0.00;0.00;;;;;;;9.79;90.55;98563.34;4932644;28;20241;-59
2022/11/24 11:07:16;;;;;;;0.00;0.00;;;;;;;9.69;88.89;98563.38;4935210;28;20242;-59
2022/11/24 11:09:42;;;;;;;0.00;0.00;;;;;;;9.73;89.06;98554.31;4933745;28;20714;-59
2022/11/24 11:12:11;;;;;;;0.00;0.00;;;;;;;9.78;86.62;98570.34;4932752;28;20231;-58
2022/11/24 11:14:38;;;;;;;0.00;0.00;;;;;;;9.87;89.97;98566.84;4934830;28;20249;-60
2022/11/24 11:17:32;;;;;;;0.00;0.00;;;;;;;10.02;83.43;98554.13;4933678;28;20282;-59
2022/11/24 11:20:02;;;;;;;0.00;0.00;;;;;;;9.90;87.70;98569.16;4933448;28;20236;-59
2022/11/24 11:22:33;;;;;;;0.00;0.00;;;;;;;10.09;84.48;98564.78;4931660;28;20271;-60
2022/11/24 11:25:14;;;;;;;0.00;0.00;;;;;;;10.00;85.83;98560.44;4934910;28;20423;-60
2022/11/24 11:27:42;;;;;;;0.00;0.00;;;;;;;10.00;86.00;98563.06;4918016;28;20233;-60
2022/11/24 11:30:23;;;;;;;0.00;0.00;;;;;;;9.82;87.25;98563.06;4914761;29;20224;-59
2022/11/24 11:32:57;;;;;;;0.00;0.00;;;;;;;9.90;87.48;98563.13;4931242;28;20244;-59
2022/11/24 11:35:26;;;;;;;0.00;0.00;;;;;;;9.83;90.13;98569.91;4934424;28;20247;-60
2022/11/24 11:37:57;;;;;;;0.00;0.00;;;;;;;9.93;88.03;98573.28;4933516;28;20237;-59
2022/11/24 11:40:27;;;;;;;0.00;0.00;;;;;;;9.81;87.38;98569.25;4927921;28;20251;-58
2022/11/24 11:43:00;;;;;;;0.00;0.00;;;;;;;9.65;88.33;98573.31;4931938;28;20235;-58
2022/11/24 11:45:31;;;;;;;0.00;0.00;;;;;;;9.85;88.80;98568.78;4924781;28;20239;-59
2022/11/24 11:48:21;;;;;;;0.00;0.00;;;;;;;9.93;87.92;98575.03;4934061;28;20617;-59
2022/11/24 11:50:52;;;;;;;0.00;0.00;;;;;;;9.80;89.46;98573.63;4919342;29;20243;-59